sensor_id;sensor_type;location;lat;lon;timestamp;temperature;humidity
42617;DHT22;28250;52.320;0.360;2023-04-29T00:00:11;7.20;99.90
42617;DHT22;28250;52.320;0.360;2023-04-29T00:02:39;7.10;99.90
42617;DHT22;28250;52.320;0.360;2023-04-29T00:05:06;7.10;99.90
42617;DHT22;28250;52.320;0.360;2023-04-29T00:07:32;7.10;99.90
42617;DHT22;28250;52.320;0.360;2023-04-29T00:09:58;7.00;99.90
42617;DHT22;28250;52.320;0.360;2023-04-29T00:12:25;6.90;99.90
42617;DHT22;28250;52.320;0.360;2023-04-29T00:14:51;6.90;99.90
42617;DHT22;28250;52.320;0.360;2023-04-29T00:17:18;7.00;99.90
42617;DHT22;28250;52.320;0.360;2023-04-29T00:19:44;6.90;99.90
42617;DHT22;28250;52.320;0.360;2023-04-29T00:22:10;6.90;99.90
42617;DHT22;28250;52.320;0.360;2023-04-29T00:24:36;6.90;99.90
42617;DHT22;28250;52.320;0.360;2023-04-29T00:27:02;6.80;99.90
42617;DHT22;28250;52.320;0.360;2023-04-29T00:29:30;6.70;99.90
42617;DHT22;28250;52.320;0.360;2023-04-29T00:31:57;6.70;99.90
42617;DHT22;28250;52.320;0.360;2023-04-29T00:34:23;6.60;99.90
42617;DHT22;28250;52.320;0.360;2023-04-29T00:36:50;6.60;99.90
42617;DHT22;28250;52.320;0.360;2023-04-29T00:39:17;6.60;99.90
42617;DHT22;28250;52.320;0.360;2023-04-29T00:41:43;6.60;99.90
42617;DHT22;28250;52.320;0.360;2023-04-29T00:44:09;6.50;99.90
42617;DHT22;28250;52.320;0.360;2023-04-29T00:46:37;6.40;99.90
42617;DHT22;28250;52.320;0.360;2023-04-29T00:49:03;6.40;99.90
42617;DHT22;28250;52.320;0.360;2023-04-29T00:51:29;6.40;99.90
42617;DHT22;28250;52.320;0.360;2023-04-29T00:53:56;6.30;99.90
42617;DHT22;28250;52.320;0.360;2023-04-29T00:56:22;6.30;99.90
42617;DHT22;28250;52.320;0.360;2023-04-29T00:58:48;6.20;99.90
42617;DHT22;28250;52.320;0.360;2023-04-29T01:01:18;6.10;99.90
42617;DHT22;28250;52.320;0.360;2023-04-29T01:03:44;6.10;99.90
42617;DHT22;28250;52.320;0.360;2023-04-29T01:12:26;5.90;99.90
42617;DHT22;28250;52.320;0.360;2023-04-29T01:15:04;5.80;99.90
42617;DHT22;28250;52.320;0.360;2023-04-29T01:17:39;5.90;99.90
42617;DHT22;28250;52.320;0.360;2023-04-29T01:20:09;5.80;99.90
42617;DHT22;28250;52.320;0.360;2023-04-29T01:22:39;5.80;99.90
42617;DHT22;28250;52.320;0.360;2023-04-29T01:25:06;5.70;99.90
42617;DHT22;28250;52.320;0.360;2023-04-29T01:31:31;5.70;99.90
42617;DHT22;28250;52.320;0.360;2023-04-29T01:37:17;5.60;99.90
42617;DHT22;28250;52.320;0.360;2023-04-29T01:40:15;5.70;99.90
42617;DHT22;28250;52.320;0.360;2023-04-29T01:43:01;5.60;99.90
42617;DHT22;28250;52.320;0.360;2023-04-29T01:45:32;5.50;99.90
42617;DHT22;28250;52.320;0.360;2023-04-29T01:47:59;5.50;99.90
42617;DHT22;28250;52.320;0.360;2023-04-29T01:50:26;5.50;99.90
42617;DHT22;28250;52.320;0.360;2023-04-29T01:52:54;5.40;99.90
42617;DHT22;28250;52.320;0.360;2023-04-29T01:55:20;5.40;99.90
42617;DHT22;28250;52.320;0.360;2023-04-29T01:57:54;5.40;99.90
42617;DHT22;28250;52.320;0.360;2023-04-29T02:00:39;5.30;99.90
42617;DHT22;28250;52.320;0.360;2023-04-29T02:03:05;5.40;99.90
42617;DHT22;28250;52.320;0.360;2023-04-29T02:05:40;5.40;99.90
42617;DHT22;28250;52.320;0.360;2023-04-29T02:08:06;5.30;99.90
42617;DHT22;28250;52.320;0.360;2023-04-29T02:10:36;5.20;99.90
42617;DHT22;28250;52.320;0.360;2023-04-29T02:13:29;5.20;99.90
42617;DHT22;28250;52.320;0.360;2023-04-29T02:15:55;5.10;99.90
42617;DHT22;28250;52.320;0.360;2023-04-29T02:18:21;5.10;99.90
42617;DHT22;28250;52.320;0.360;2023-04-29T02:20:48;5.20;99.90
42617;DHT22;28250;52.320;0.360;2023-04-29T02:23:15;5.10;99.90
42617;DHT22;28250;52.320;0.360;2023-04-29T02:25:41;5.00;99.90
42617;DHT22;28250;52.320;0.360;2023-04-29T02:28:07;5.00;99.90
42617;DHT22;28250;52.320;0.360;2023-04-29T02:30:34;5.00;99.90
42617;DHT22;28250;52.320;0.360;2023-04-29T02:33:00;4.90;99.90
42617;DHT22;28250;52.320;0.360;2023-04-29T02:35:26;5.00;99.90
42617;DHT22;28250;52.320;0.360;2023-04-29T02:37:53;4.80;99.90
42617;DHT22;28250;52.320;0.360;2023-04-29T02:40:19;4.70;99.90
42617;DHT22;28250;52.320;0.360;2023-04-29T02:42:45;4.80;99.90
42617;DHT22;28250;52.320;0.360;2023-04-29T02:45:11;4.70;99.90
42617;DHT22;28250;52.320;0.360;2023-04-29T02:47:37;4.70;99.90
42617;DHT22;28250;52.320;0.360;2023-04-29T02:50:04;4.60;99.90
42617;DHT22;28250;52.320;0.360;2023-04-29T02:52:31;4.60;99.90
42617;DHT22;28250;52.320;0.360;2023-04-29T02:54:57;4.50;99.90
42617;DHT22;28250;52.320;0.360;2023-04-29T02:57:23;4.40;99.90
42617;DHT22;28250;52.320;0.360;2023-04-29T02:59:49;4.40;99.90
42617;DHT22;28250;52.320;0.360;2023-04-29T03:02:16;4.40;99.90
42617;DHT22;28250;52.320;0.360;2023-04-29T03:04:45;4.30;99.90
42617;DHT22;28250;52.320;0.360;2023-04-29T03:07:11;4.30;99.90
42617;DHT22;28250;52.320;0.360;2023-04-29T03:09:37;4.30;99.90
42617;DHT22;28250;52.320;0.360;2023-04-29T03:12:04;4.30;99.90
42617;DHT22;28250;52.320;0.360;2023-04-29T03:14:30;4.20;99.90
42617;DHT22;28250;52.320;0.360;2023-04-29T03:16:57;4.20;99.90
42617;DHT22;28250;52.320;0.360;2023-04-29T03:19:23;4.20;99.90
42617;DHT22;28250;52.320;0.360;2023-04-29T03:21:49;4.20;99.90
42617;DHT22;28250;52.320;0.360;2023-04-29T03:24:15;4.20;99.90
42617;DHT22;28250;52.320;0.360;2023-04-29T03:26:41;4.30;99.90
42617;DHT22;28250;52.320;0.360;2023-04-29T03:29:10;4.30;99.90
42617;DHT22;28250;52.320;0.360;2023-04-29T03:31:36;4.20;99.90
42617;DHT22;28250;52.320;0.360;2023-04-29T03:34:02;4.10;99.90
42617;DHT22;28250;52.320;0.360;2023-04-29T03:36:31;4.10;99.90
42617;DHT22;28250;52.320;0.360;2023-04-29T03:39:00;4.10;99.90
42617;DHT22;28250;52.320;0.360;2023-04-29T03:41:28;4.00;99.90
42617;DHT22;28250;52.320;0.360;2023-04-29T03:43:54;4.00;99.90
42617;DHT22;28250;52.320;0.360;2023-04-29T03:46:26;4.00;99.90
42617;DHT22;28250;52.320;0.360;2023-04-29T03:48:52;4.00;99.90
42617;DHT22;28250;52.320;0.360;2023-04-29T03:51:22;4.00;99.90
42617;DHT22;28250;52.320;0.360;2023-04-29T03:53:53;4.00;99.90
42617;DHT22;28250;52.320;0.360;2023-04-29T03:56:21;4.00;99.90
42617;DHT22;28250;52.320;0.360;2023-04-29T03:58:48;4.00;99.90
42617;DHT22;28250;52.320;0.360;2023-04-29T04:01:14;4.00;99.90
42617;DHT22;28250;52.320;0.360;2023-04-29T04:03:43;4.00;99.90
42617;DHT22;28250;52.320;0.360;2023-04-29T04:06:10;4.00;99.90
42617;DHT22;28250;52.320;0.360;2023-04-29T04:08:36;4.00;99.90
42617;DHT22;28250;52.320;0.360;2023-04-29T04:11:09;4.00;99.90
42617;DHT22;28250;52.320;0.360;2023-04-29T04:13:41;3.90;99.90
42617;DHT22;28250;52.320;0.360;2023-04-29T04:16:09;3.90;99.90
42617;DHT22;28250;52.320;0.360;2023-04-29T04:18:36;3.90;99.90
42617;DHT22;28250;52.320;0.360;2023-04-29T04:21:07;3.90;99.90
42617;DHT22;28250;52.320;0.360;2023-04-29T04:23:34;3.80;99.90
42617;DHT22;28250;52.320;0.360;2023-04-29T04:26:02;3.80;99.90
42617;DHT22;28250;52.320;0.360;2023-04-29T04:28:52;3.80;99.90
42617;DHT22;28250;52.320;0.360;2023-04-29T04:31:27;3.70;99.90
42617;DHT22;28250;52.320;0.360;2023-04-29T04:33:54;3.70;99.90
42617;DHT22;28250;52.320;0.360;2023-04-29T04:36:21;3.70;99.90
42617;DHT22;28250;52.320;0.360;2023-04-29T04:38:47;3.70;99.90
42617;DHT22;28250;52.320;0.360;2023-04-29T04:41:14;3.80;99.90
42617;DHT22;28250;52.320;0.360;2023-04-29T04:43:42;3.80;99.90
42617;DHT22;28250;52.320;0.360;2023-04-29T04:46:16;3.80;99.90
42617;DHT22;28250;52.320;0.360;2023-04-29T04:48:59;3.80;99.90
42617;DHT22;28250;52.320;0.360;2023-04-29T04:51:27;3.90;99.90
42617;DHT22;28250;52.320;0.360;2023-04-29T04:53:53;3.90;99.90
42617;DHT22;28250;52.320;0.360;2023-04-29T04:56:23;3.90;99.90
42617;DHT22;28250;52.320;0.360;2023-04-29T04:58:49;3.80;99.90
42617;DHT22;28250;52.320;0.360;2023-04-29T05:01:15;3.90;99.90
42617;DHT22;28250;52.320;0.360;2023-04-29T05:03:41;3.80;99.90
42617;DHT22;28250;52.320;0.360;2023-04-29T05:06:07;3.80;99.90
42617;DHT22;28250;52.320;0.360;2023-04-29T05:08:33;3.70;99.90
42617;DHT22;28250;52.320;0.360;2023-04-29T05:11:01;3.90;99.90
42617;DHT22;28250;52.320;0.360;2023-04-29T05:13:27;3.90;99.90
42617;DHT22;28250;52.320;0.360;2023-04-29T05:15:54;3.90;99.90
42617;DHT22;28250;52.320;0.360;2023-04-29T05:18:24;4.00;99.90
42617;DHT22;28250;52.320;0.360;2023-04-29T05:20:51;4.00;99.90
42617;DHT22;28250;52.320;0.360;2023-04-29T05:23:17;4.10;99.90
42617;DHT22;28250;52.320;0.360;2023-04-29T05:25:45;4.20;99.90
42617;DHT22;28250;52.320;0.360;2023-04-29T05:28:11;4.20;99.90
42617;DHT22;28250;52.320;0.360;2023-04-29T05:30:40;4.30;99.90
42617;DHT22;28250;52.320;0.360;2023-04-29T05:33:06;4.30;99.90
42617;DHT22;28250;52.320;0.360;2023-04-29T05:35:32;4.30;99.90
42617;DHT22;28250;52.320;0.360;2023-04-29T05:37:59;4.50;99.90
42617;DHT22;28250;52.320;0.360;2023-04-29T05:40:35;4.50;99.90
42617;DHT22;28250;52.320;0.360;2023-04-29T05:43:27;4.40;99.90
42617;DHT22;28250;52.320;0.360;2023-04-29T05:45:55;4.60;99.90
42617;DHT22;28250;52.320;0.360;2023-04-29T05:48:23;4.70;99.90
42617;DHT22;28250;52.320;0.360;2023-04-29T05:50:50;4.60;99.90
42617;DHT22;28250;52.320;0.360;2023-04-29T05:53:16;4.70;99.90
42617;DHT22;28250;52.320;0.360;2023-04-29T05:55:42;4.80;99.90
42617;DHT22;28250;52.320;0.360;2023-04-29T05:58:10;5.00;99.90
42617;DHT22;28250;52.320;0.360;2023-04-29T06:00:37;5.10;99.90
42617;DHT22;28250;52.320;0.360;2023-04-29T06:03:11;5.30;99.90
42617;DHT22;28250;52.320;0.360;2023-04-29T06:05:37;5.70;99.90
42617;DHT22;28250;52.320;0.360;2023-04-29T06:08:32;6.10;99.90
42617;DHT22;28250;52.320;0.360;2023-04-29T06:11:14;6.40;99.90
42617;DHT22;28250;52.320;0.360;2023-04-29T06:13:40;6.80;99.90
42617;DHT22;28250;52.320;0.360;2023-04-29T06:16:06;7.20;99.90
42617;DHT22;28250;52.320;0.360;2023-04-29T06:18:33;7.90;99.90
42617;DHT22;28250;52.320;0.360;2023-04-29T06:20:59;8.20;99.90
42617;DHT22;28250;52.320;0.360;2023-04-29T06:23:25;8.10;99.90
42617;DHT22;28250;52.320;0.360;2023-04-29T06:25:52;8.50;99.90
42617;DHT22;28250;52.320;0.360;2023-04-29T06:28:18;8.50;99.90
42617;DHT22;28250;52.320;0.360;2023-04-29T06:30:44;9.70;99.90
42617;DHT22;28250;52.320;0.360;2023-04-29T06:33:12;10.30;99.90
42617;DHT22;28250;52.320;0.360;2023-04-29T06:35:41;10.00;99.90
42617;DHT22;28250;52.320;0.360;2023-04-29T06:38:34;9.80;99.90
42617;DHT22;28250;52.320;0.360;2023-04-29T06:41:18;9.80;99.90
42617;DHT22;28250;52.320;0.360;2023-04-29T06:44:11;9.90;99.90
42617;DHT22;28250;52.320;0.360;2023-04-29T06:46:50;9.70;99.90
42617;DHT22;28250;52.320;0.360;2023-04-29T06:49:40;9.50;99.90
42617;DHT22;28250;52.320;0.360;2023-04-29T06:52:08;9.70;99.90
42617;DHT22;28250;52.320;0.360;2023-04-29T06:54:34;9.90;99.90
42617;DHT22;28250;52.320;0.360;2023-04-29T06:57:00;10.30;99.90
42617;DHT22;28250;52.320;0.360;2023-04-29T06:59:26;10.30;99.90
42617;DHT22;28250;52.320;0.360;2023-04-29T07:01:52;10.30;99.90
42617;DHT22;28250;52.320;0.360;2023-04-29T07:04:19;10.20;99.90
42617;DHT22;28250;52.320;0.360;2023-04-29T07:06:47;10.20;99.90
42617;DHT22;28250;52.320;0.360;2023-04-29T07:09:13;10.20;99.90
42617;DHT22;28250;52.320;0.360;2023-04-29T07:11:40;10.30;99.90
42617;DHT22;28250;52.320;0.360;2023-04-29T07:14:06;10.50;99.90
42617;DHT22;28250;52.320;0.360;2023-04-29T07:16:33;10.20;99.90
42617;DHT22;28250;52.320;0.360;2023-04-29T07:18:59;10.50;99.90
42617;DHT22;28250;52.320;0.360;2023-04-29T07:21:26;10.70;99.90
42617;DHT22;28250;52.320;0.360;2023-04-29T07:23:53;10.60;99.90
42617;DHT22;28250;52.320;0.360;2023-04-29T07:26:20;10.80;99.90
42617;DHT22;28250;52.320;0.360;2023-04-29T07:28:47;10.80;99.90
42617;DHT22;28250;52.320;0.360;2023-04-29T07:31:14;10.60;99.90
42617;DHT22;28250;52.320;0.360;2023-04-29T07:33:41;10.90;99.90
42617;DHT22;28250;52.320;0.360;2023-04-29T07:36:09;11.10;99.90
42617;DHT22;28250;52.320;0.360;2023-04-29T07:38:36;11.00;99.90
42617;DHT22;28250;52.320;0.360;2023-04-29T07:41:02;11.40;99.90
42617;DHT22;28250;52.320;0.360;2023-04-29T07:43:29;11.70;99.90
42617;DHT22;28250;52.320;0.360;2023-04-29T07:45:55;11.50;99.90
42617;DHT22;28250;52.320;0.360;2023-04-29T07:48:21;11.30;99.90
42617;DHT22;28250;52.320;0.360;2023-04-29T07:50:48;11.90;99.90
42617;DHT22;28250;52.320;0.360;2023-04-29T07:53:16;12.00;99.90
42617;DHT22;28250;52.320;0.360;2023-04-29T07:55:43;12.40;99.90
42617;DHT22;28250;52.320;0.360;2023-04-29T07:58:09;12.70;99.90
42617;DHT22;28250;52.320;0.360;2023-04-29T08:00:35;12.50;99.90
42617;DHT22;28250;52.320;0.360;2023-04-29T08:03:02;12.70;99.90
42617;DHT22;28250;52.320;0.360;2023-04-29T08:05:28;12.80;99.90
42617;DHT22;28250;52.320;0.360;2023-04-29T08:07:55;12.10;99.90
42617;DHT22;28250;52.320;0.360;2023-04-29T08:10:24;12.80;99.90
42617;DHT22;28250;52.320;0.360;2023-04-29T08:12:50;13.30;99.90
42617;DHT22;28250;52.320;0.360;2023-04-29T08:15:16;13.40;99.90
42617;DHT22;28250;52.320;0.360;2023-04-29T08:17:44;13.60;99.90
42617;DHT22;28250;52.320;0.360;2023-04-29T08:20:10;13.30;99.90
42617;DHT22;28250;52.320;0.360;2023-04-29T08:22:37;13.00;99.90
42617;DHT22;28250;52.320;0.360;2023-04-29T08:25:03;13.50;99.90
42617;DHT22;28250;52.320;0.360;2023-04-29T08:27:30;14.20;99.90
42617;DHT22;28250;52.320;0.360;2023-04-29T08:29:56;14.50;99.90
42617;DHT22;28250;52.320;0.360;2023-04-29T08:32:22;14.70;99.90
42617;DHT22;28250;52.320;0.360;2023-04-29T08:34:48;14.40;99.90
42617;DHT22;28250;52.320;0.360;2023-04-29T08:37:14;14.60;99.90
42617;DHT22;28250;52.320;0.360;2023-04-29T08:39:41;14.50;99.90
42617;DHT22;28250;52.320;0.360;2023-04-29T08:42:11;13.90;99.90
42617;DHT22;28250;52.320;0.360;2023-04-29T08:44:39;13.80;99.90
42617;DHT22;28250;52.320;0.360;2023-04-29T08:47:06;14.40;99.90
42617;DHT22;28250;52.320;0.360;2023-04-29T08:49:32;14.70;99.90
42617;DHT22;28250;52.320;0.360;2023-04-29T08:51:59;14.90;99.90
42617;DHT22;28250;52.320;0.360;2023-04-29T08:54:25;15.10;99.90
42617;DHT22;28250;52.320;0.360;2023-04-29T08:56:54;14.80;99.90
42617;DHT22;28250;52.320;0.360;2023-04-29T08:59:22;14.90;99.90
42617;DHT22;28250;52.320;0.360;2023-04-29T09:01:50;14.90;99.90
42617;DHT22;28250;52.320;0.360;2023-04-29T09:04:52;14.80;99.90
42617;DHT22;28250;52.320;0.360;2023-04-29T09:07:22;15.00;99.90
42617;DHT22;28250;52.320;0.360;2023-04-29T09:09:50;15.30;99.90
42617;DHT22;28250;52.320;0.360;2023-04-29T09:12:18;15.40;99.90
42617;DHT22;28250;52.320;0.360;2023-04-29T09:14:44;15.30;99.90
42617;DHT22;28250;52.320;0.360;2023-04-29T09:17:10;15.10;99.90
42617;DHT22;28250;52.320;0.360;2023-04-29T09:19:36;15.10;99.90
42617;DHT22;28250;52.320;0.360;2023-04-29T09:22:03;15.00;99.90
42617;DHT22;28250;52.320;0.360;2023-04-29T09:24:31;14.80;99.90
42617;DHT22;28250;52.320;0.360;2023-04-29T09:26:58;14.70;99.90
42617;DHT22;28250;52.320;0.360;2023-04-29T09:29:25;14.40;99.90
42617;DHT22;28250;52.320;0.360;2023-04-29T09:31:51;14.70;99.90
42617;DHT22;28250;52.320;0.360;2023-04-29T09:34:33;14.90;99.90
42617;DHT22;28250;52.320;0.360;2023-04-29T09:37:23;14.60;99.90
42617;DHT22;28250;52.320;0.360;2023-04-29T09:39:51;14.20;99.90
42617;DHT22;28250;52.320;0.360;2023-04-29T09:42:17;14.60;99.90
42617;DHT22;28250;52.320;0.360;2023-04-29T09:44:43;14.40;99.90
42617;DHT22;28250;52.320;0.360;2023-04-29T09:47:10;14.70;99.90
42617;DHT22;28250;52.320;0.360;2023-04-29T09:49:39;14.90;99.90
42617;DHT22;28250;52.320;0.360;2023-04-29T09:52:09;15.30;99.90
42617;DHT22;28250;52.320;0.360;2023-04-29T09:54:37;15.30;99.90
42617;DHT22;28250;52.320;0.360;2023-04-29T09:57:05;15.30;99.90
42617;DHT22;28250;52.320;0.360;2023-04-29T09:59:35;15.60;99.90
42617;DHT22;28250;52.320;0.360;2023-04-29T10:02:16;16.20;99.90
42617;DHT22;28250;52.320;0.360;2023-04-29T10:04:51;16.00;99.90
42617;DHT22;28250;52.320;0.360;2023-04-29T10:07:19;16.20;99.90
42617;DHT22;28250;52.320;0.360;2023-04-29T10:09:46;16.30;99.90
42617;DHT22;28250;52.320;0.360;2023-04-29T10:12:17;16.50;99.90
42617;DHT22;28250;52.320;0.360;2023-04-29T10:15:05;16.10;99.90
42617;DHT22;28250;52.320;0.360;2023-04-29T10:18:11;16.00;99.90
42617;DHT22;28250;52.320;0.360;2023-04-29T10:20:46;15.90;99.90
42617;DHT22;28250;52.320;0.360;2023-04-29T10:23:14;16.90;99.90
42617;DHT22;28250;52.320;0.360;2023-04-29T10:25:45;17.70;99.90
42617;DHT22;28250;52.320;0.360;2023-04-29T10:28:14;18.00;99.90
42617;DHT22;28250;52.320;0.360;2023-04-29T10:30:43;17.80;99.90
42617;DHT22;28250;52.320;0.360;2023-04-29T10:33:10;18.10;99.90
42617;DHT22;28250;52.320;0.360;2023-04-29T10:35:37;18.70;99.90
42617;DHT22;28250;52.320;0.360;2023-04-29T10:38:16;18.20;99.90
42617;DHT22;28250;52.320;0.360;2023-04-29T10:40:48;18.20;99.90
42617;DHT22;28250;52.320;0.360;2023-04-29T10:43:21;18.10;99.90
42617;DHT22;28250;52.320;0.360;2023-04-29T10:45:48;18.00;99.90
42617;DHT22;28250;52.320;0.360;2023-04-29T10:48:14;18.30;99.90
42617;DHT22;28250;52.320;0.360;2023-04-29T10:53:17;19.40;99.90
42617;DHT22;28250;52.320;0.360;2023-04-29T10:55:52;19.40;99.90
42617;DHT22;28250;52.320;0.360;2023-04-29T10:58:36;19.30;99.90
42617;DHT22;28250;52.320;0.360;2023-04-29T11:01:05;19.40;99.90
42617;DHT22;28250;52.320;0.360;2023-04-29T11:03:54;20.10;99.90
42617;DHT22;28250;52.320;0.360;2023-04-29T11:06:38;20.50;99.90
42617;DHT22;28250;52.320;0.360;2023-04-29T11:09:18;20.50;99.90
42617;DHT22;28250;52.320;0.360;2023-04-29T11:16:57;21.00;99.90
42617;DHT22;28250;52.320;0.360;2023-04-29T11:19:32;20.10;99.90
42617;DHT22;28250;52.320;0.360;2023-04-29T11:22:25;21.40;99.90
42617;DHT22;28250;52.320;0.360;2023-04-29T11:24:58;22.10;99.90
42617;DHT22;28250;52.320;0.360;2023-04-29T11:27:33;21.70;99.90
42617;DHT22;28250;52.320;0.360;2023-04-29T11:30:01;21.40;99.90
42617;DHT22;28250;52.320;0.360;2023-04-29T11:32:32;21.20;99.90
42617;DHT22;28250;52.320;0.360;2023-04-29T11:37:40;20.40;99.90
42617;DHT22;28250;52.320;0.360;2023-04-29T11:40:08;21.00;99.90
42617;DHT22;28250;52.320;0.360;2023-04-29T11:42:43;23.10;99.90
42617;DHT22;28250;52.320;0.360;2023-04-29T11:45:11;23.70;99.90
42617;DHT22;28250;52.320;0.360;2023-04-29T11:47:44;23.50;99.90
42617;DHT22;28250;52.320;0.360;2023-04-29T11:50:11;20.80;99.90
42617;DHT22;28250;52.320;0.360;2023-04-29T11:52:40;21.50;99.90
42617;DHT22;28250;52.320;0.360;2023-04-29T11:55:10;20.80;99.90
42617;DHT22;28250;52.320;0.360;2023-04-29T11:57:37;21.60;99.90
42617;DHT22;28250;52.320;0.360;2023-04-29T12:00:10;21.60;99.90
42617;DHT22;28250;52.320;0.360;2023-04-29T12:02:37;22.70;99.90
42617;DHT22;28250;52.320;0.360;2023-04-29T12:05:05;22.90;99.90
42617;DHT22;28250;52.320;0.360;2023-04-29T12:07:33;22.80;99.90
42617;DHT22;28250;52.320;0.360;2023-04-29T12:10:00;23.20;99.90
42617;DHT22;28250;52.320;0.360;2023-04-29T12:12:26;23.10;99.90
42617;DHT22;28250;52.320;0.360;2023-04-29T12:14:53;22.10;99.90
42617;DHT22;28250;52.320;0.360;2023-04-29T12:17:19;21.40;99.90
42617;DHT22;28250;52.320;0.360;2023-04-29T12:19:46;21.50;99.90
42617;DHT22;28250;52.320;0.360;2023-04-29T12:22:13;21.30;99.90
42617;DHT22;28250;52.320;0.360;2023-04-29T12:24:39;22.00;99.90
42617;DHT22;28250;52.320;0.360;2023-04-29T12:27:09;22.60;99.90
42617;DHT22;28250;52.320;0.360;2023-04-29T12:29:36;23.00;99.90
42617;DHT22;28250;52.320;0.360;2023-04-29T12:32:03;23.00;99.90
42617;DHT22;28250;52.320;0.360;2023-04-29T12:34:30;23.00;99.90
42617;DHT22;28250;52.320;0.360;2023-04-29T12:37:00;23.00;99.90
42617;DHT22;28250;52.320;0.360;2023-04-29T12:39:27;22.90;99.90
42617;DHT22;28250;52.320;0.360;2023-04-29T12:41:57;23.40;99.90
42617;DHT22;28250;52.320;0.360;2023-04-29T12:44:24;22.80;99.90
42617;DHT22;28250;52.320;0.360;2023-04-29T12:46:50;22.70;99.90
42617;DHT22;28250;52.320;0.360;2023-04-29T12:49:23;22.90;99.90
42617;DHT22;28250;52.320;0.360;2023-04-29T12:51:49;22.90;99.90
42617;DHT22;28250;52.320;0.360;2023-04-29T12:54:15;22.60;99.90
42617;DHT22;28250;52.320;0.360;2023-04-29T12:56:41;23.90;99.90
42617;DHT22;28250;52.320;0.360;2023-04-29T12:59:08;24.20;99.90
42617;DHT22;28250;52.320;0.360;2023-04-29T13:01:35;23.60;99.90
42617;DHT22;28250;52.320;0.360;2023-04-29T13:04:01;23.60;99.90
42617;DHT22;28250;52.320;0.360;2023-04-29T13:06:30;23.10;99.90
42617;DHT22;28250;52.320;0.360;2023-04-29T13:08:56;22.50;99.90
42617;DHT22;28250;52.320;0.360;2023-04-29T13:11:22;22.20;99.90
42617;DHT22;28250;52.320;0.360;2023-04-29T13:13:48;22.80;99.90
42617;DHT22;28250;52.320;0.360;2023-04-29T13:16:15;22.90;99.90
42617;DHT22;28250;52.320;0.360;2023-04-29T13:18:41;21.00;99.90
42617;DHT22;28250;52.320;0.360;2023-04-29T13:21:07;21.00;99.90
42617;DHT22;28250;52.320;0.360;2023-04-29T13:23:33;22.50;99.90
42617;DHT22;28250;52.320;0.360;2023-04-29T13:25:59;23.90;99.90
42617;DHT22;28250;52.320;0.360;2023-04-29T13:28:25;24.10;99.90
42617;DHT22;28250;52.320;0.360;2023-04-29T13:30:51;24.10;99.90
42617;DHT22;28250;52.320;0.360;2023-04-29T13:33:17;24.00;99.90
42617;DHT22;28250;52.320;0.360;2023-04-29T13:35:44;24.00;99.90
42617;DHT22;28250;52.320;0.360;2023-04-29T13:38:10;22.50;99.90
42617;DHT22;28250;52.320;0.360;2023-04-29T13:40:36;22.50;99.90
42617;DHT22;28250;52.320;0.360;2023-04-29T13:43:02;23.30;99.90
42617;DHT22;28250;52.320;0.360;2023-04-29T13:45:28;23.80;99.90
42617;DHT22;28250;52.320;0.360;2023-04-29T13:47:54;23.20;99.90
42617;DHT22;28250;52.320;0.360;2023-04-29T13:50:20;22.60;99.90
42617;DHT22;28250;52.320;0.360;2023-04-29T13:52:46;22.20;99.90
42617;DHT22;28250;52.320;0.360;2023-04-29T13:55:12;22.90;99.90
42617;DHT22;28250;52.320;0.360;2023-04-29T13:57:38;23.20;99.90
42617;DHT22;28250;52.320;0.360;2023-04-29T14:00:05;23.70;99.90
42617;DHT22;28250;52.320;0.360;2023-04-29T14:02:37;23.30;99.90
42617;DHT22;28250;52.320;0.360;2023-04-29T14:05:03;23.50;99.90
42617;DHT22;28250;52.320;0.360;2023-04-29T14:07:29;24.20;99.90
42617;DHT22;28250;52.320;0.360;2023-04-29T14:09:55;24.10;99.90
42617;DHT22;28250;52.320;0.360;2023-04-29T14:12:21;23.40;99.90
42617;DHT22;28250;52.320;0.360;2023-04-29T14:14:47;24.20;99.90
42617;DHT22;28250;52.320;0.360;2023-04-29T14:17:13;23.70;99.90
42617;DHT22;28250;52.320;0.360;2023-04-29T14:19:39;24.40;99.90
42617;DHT22;28250;52.320;0.360;2023-04-29T14:22:06;24.30;99.90
42617;DHT22;28250;52.320;0.360;2023-04-29T14:24:32;24.40;99.90
42617;DHT22;28250;52.320;0.360;2023-04-29T14:26:58;25.20;99.90
42617;DHT22;28250;52.320;0.360;2023-04-29T14:29:24;24.50;99.90
42617;DHT22;28250;52.320;0.360;2023-04-29T14:31:50;24.40;99.90
42617;DHT22;28250;52.320;0.360;2023-04-29T14:34:16;24.00;99.90
42617;DHT22;28250;52.320;0.360;2023-04-29T14:36:44;23.90;99.90
42617;DHT22;28250;52.320;0.360;2023-04-29T14:39:11;23.70;99.90
42617;DHT22;28250;52.320;0.360;2023-04-29T14:41:38;24.60;99.90
42617;DHT22;28250;52.320;0.360;2023-04-29T14:44:04;22.90;99.90
42617;DHT22;28250;52.320;0.360;2023-04-29T14:46:31;22.70;99.90
42617;DHT22;28250;52.320;0.360;2023-04-29T14:48:57;23.10;99.90
42617;DHT22;28250;52.320;0.360;2023-04-29T14:51:23;24.10;99.90
42617;DHT22;28250;52.320;0.360;2023-04-29T14:53:50;24.70;99.90
42617;DHT22;28250;52.320;0.360;2023-04-29T14:56:17;23.90;99.90
42617;DHT22;28250;52.320;0.360;2023-04-29T14:58:43;23.70;99.90
42617;DHT22;28250;52.320;0.360;2023-04-29T15:01:09;22.40;99.90
42617;DHT22;28250;52.320;0.360;2023-04-29T15:03:35;23.20;99.90
42617;DHT22;28250;52.320;0.360;2023-04-29T15:06:01;24.10;99.90
42617;DHT22;28250;52.320;0.360;2023-04-29T15:08:30;23.80;99.90
42617;DHT22;28250;52.320;0.360;2023-04-29T15:10:56;23.30;99.90
42617;DHT22;28250;52.320;0.360;2023-04-29T15:13:22;23.80;99.90
42617;DHT22;28250;52.320;0.360;2023-04-29T15:15:48;24.30;99.90
42617;DHT22;28250;52.320;0.360;2023-04-29T15:18:14;23.30;99.90
42617;DHT22;28250;52.320;0.360;2023-04-29T15:20:40;23.20;99.90
42617;DHT22;28250;52.320;0.360;2023-04-29T15:23:07;22.40;99.90
42617;DHT22;28250;52.320;0.360;2023-04-29T15:25:33;21.90;99.90
42617;DHT22;28250;52.320;0.360;2023-04-29T15:28:00;21.90;99.90
42617;DHT22;28250;52.320;0.360;2023-04-29T15:30:28;22.10;99.90
42617;DHT22;28250;52.320;0.360;2023-04-29T15:32:54;22.40;99.90
42617;DHT22;28250;52.320;0.360;2023-04-29T15:35:20;21.80;99.90
42617;DHT22;28250;52.320;0.360;2023-04-29T15:37:46;21.10;99.90
42617;DHT22;28250;52.320;0.360;2023-04-29T15:40:12;21.30;99.90
42617;DHT22;28250;52.320;0.360;2023-04-29T15:42:39;20.80;99.90
42617;DHT22;28250;52.320;0.360;2023-04-29T15:45:05;20.50;99.90
42617;DHT22;28250;52.320;0.360;2023-04-29T15:47:33;21.10;99.90
42617;DHT22;28250;52.320;0.360;2023-04-29T15:50:00;21.80;99.90
42617;DHT22;28250;52.320;0.360;2023-04-29T15:52:26;22.10;99.90
42617;DHT22;28250;52.320;0.360;2023-04-29T15:54:52;22.00;99.90
42617;DHT22;28250;52.320;0.360;2023-04-29T15:57:18;21.50;99.90
42617;DHT22;28250;52.320;0.360;2023-04-29T15:59:44;21.60;99.90
42617;DHT22;28250;52.320;0.360;2023-04-29T16:02:10;21.10;99.90
42617;DHT22;28250;52.320;0.360;2023-04-29T16:04:37;21.30;99.90
42617;DHT22;28250;52.320;0.360;2023-04-29T16:07:03;21.00;99.90
42617;DHT22;28250;52.320;0.360;2023-04-29T16:09:34;20.80;99.90